sensor_id;sensor_type;location;lat;lon;timestamp;pressure;altitude;pressure_sealevel;temperature;humidity
78773;BME280;68111;44.728;11.290;2023-08-01T00:00:33;100774.84;;;27.75;54.06
78773;BME280;68111;44.728;11.290;2023-08-01T00:03:00;100777.34;;;27.78;53.90
78773;BME280;68111;44.728;11.290;2023-08-01T00:05:27;100762.69;;;27.81;53.72
78773;BME280;68111;44.728;11.290;2023-08-01T00:07:54;100759.84;;;27.82;53.68
78773;BME280;68111;44.728;11.290;2023-08-01T00:10:21;100759.75;;;27.84;54.09
78773;BME280;68111;44.728;11.290;2023-08-01T00:12:47;100763.34;;;27.84;53.70
78773;BME280;68111;44.728;11.290;2023-08-01T00:15:14;100750.63;;;27.85;54.08
78773;BME280;68111;44.728;11.290;2023-08-01T00:17:41;100756.16;;;27.83;54.24
78773;BME280;68111;44.728;11.290;2023-08-01T00:20:08;100741.81;;;27.81;54.01
78773;BME280;68111;44.728;11.290;2023-08-01T00:22:35;100745.50;;;27.80;53.75
78773;BME280;68111;44.728;11.290;2023-08-01T00:25:02;100744.75;;;27.78;54.21
78773;BME280;68111;44.728;11.290;2023-08-01T00:27:29;100735.84;;;27.76;54.34
78773;BME280;68111;44.728;11.290;2023-08-01T00:30:07;100721.59;;;27.72;54.35
78773;BME280;68111;44.728;11.290;2023-08-01T00:32:34;100722.69;;;27.70;54.19
78773;BME280;68111;44.728;11.290;2023-08-01T00:35:02;100717.56;;;27.65;54.56
78773;BME280;68111;44.728;11.290;2023-08-01T00:37:30;100713.41;;;27.60;54.80
78773;BME280;68111;44.728;11.290;2023-08-01T00:39:56;100719.03;;;27.57;54.57
78773;BME280;68111;44.728;11.290;2023-08-01T00:42:23;100713.06;;;27.52;54.89
78773;BME280;68111;44.728;11.290;2023-08-01T00:44:50;100701.44;;;27.50;54.82
78773;BME280;68111;44.728;11.290;2023-08-01T00:47:18;100695.13;;;27.49;55.31
78773;BME280;68111;44.728;11.290;2023-08-01T00:49:47;100697.84;;;27.49;55.25
78773;BME280;68111;44.728;11.290;2023-08-01T00:52:14;100689.81;;;27.48;55.07
78773;BME280;68111;44.728;11.290;2023-08-01T00:54:41;100684.47;;;27.46;55.09
78773;BME280;68111;44.728;11.290;2023-08-01T00:57:08;100686.31;;;27.46;55.05
78773;BME280;68111;44.728;11.290;2023-08-01T00:59:34;100685.56;;;27.44;55.45
78773;BME280;68111;44.728;11.290;2023-08-01T01:02:02;100672.97;;;27.42;55.59
78773;BME280;68111;44.728;11.290;2023-08-01T01:04:29;100672.97;;;27.42;55.14
78773;BME280;68111;44.728;11.290;2023-08-01T01:07:05;100665.91;;;27.40;55.34
78773;BME280;68111;44.728;11.290;2023-08-01T01:09:33;100664.28;;;27.37;55.43
78773;BME280;68111;44.728;11.290;2023-08-01T01:12:00;100659.91;;;27.35;55.65
78773;BME280;68111;44.728;11.290;2023-08-01T01:14:27;100661.00;;;27.32;55.63
78773;BME280;68111;44.728;11.290;2023-08-01T01:16:54;100661.00;;;27.32;55.98
78773;BME280;68111;44.728;11.290;2023-08-01T01:19:21;100659.25;;;27.31;55.58
78773;BME280;68111;44.728;11.290;2023-08-01T01:22:17;100653.91;;;27.30;55.88
78773;BME280;68111;44.728;11.290;2023-08-01T01:24:45;100655.56;;;27.32;55.62
78773;BME280;68111;44.728;11.290;2023-08-01T01:27:13;100659.44;;;27.28;55.86
78773;BME280;68111;44.728;11.290;2023-08-01T01:29:43;100651.41;;;27.27;55.92
78773;BME280;68111;44.728;11.290;2023-08-01T01:32:11;100657.91;;;27.24;56.20
78773;BME280;68111;44.728;11.290;2023-08-01T01:34:38;100652.69;;;27.21;56.43
78773;BME280;68111;44.728;11.290;2023-08-01T01:37:04;100658.34;;;27.18;56.10
78773;BME280;68111;44.728;11.290;2023-08-01T01:39:32;100653.13;;;27.15;56.41
78773;BME280;68111;44.728;11.290;2023-08-01T01:41:58;100651.38;;;27.14;56.21
78773;BME280;68111;44.728;11.290;2023-08-01T01:44:25;100647.13;;;27.10;56.37
78773;BME280;68111;44.728;11.290;2023-08-01T01:46:52;100654.41;;;27.09;56.55
78773;BME280;68111;44.728;11.290;2023-08-01T01:49:18;100654.41;;;27.09;56.32
78773;BME280;68111;44.728;11.290;2023-08-01T01:51:45;100656.03;;;27.12;56.48
78773;BME280;68111;44.728;11.290;2023-08-01T01:54:12;100649.75;;;27.12;56.24
78773;BME280;68111;44.728;11.290;2023-08-01T01:56:38;100653.53;;;27.09;56.22
78773;BME280;68111;44.728;11.290;2023-08-01T01:59:05;100652.56;;;27.10;56.42
78773;BME280;68111;44.728;11.290;2023-08-01T02:01:32;100642.56;;;27.10;56.44
78773;BME280;68111;44.728;11.290;2023-08-01T02:03:59;100647.25;;;27.08;56.49
78773;BME280;68111;44.728;11.290;2023-08-01T02:06:26;100635.50;;;27.08;56.89
78773;BME280;68111;44.728;11.290;2023-08-01T02:08:54;100631.81;;;27.09;56.41
78773;BME280;68111;44.728;11.290;2023-08-01T02:11:26;100633.78;;;27.07;56.71
78773;BME280;68111;44.728;11.290;2023-08-01T02:13:52;100631.28;;;27.04;56.57
78773;BME280;68111;44.728;11.290;2023-08-01T02:16:20;100634.19;;;27.01;57.05
78773;BME280;68111;44.728;11.290;2023-08-01T02:18:47;100628.97;;;26.98;57.11
78773;BME280;68111;44.728;11.290;2023-08-01T02:21:14;100630.13;;;26.94;56.89
78773;BME280;68111;44.728;11.290;2023-08-01T02:23:41;100627.50;;;26.92;57.31
78773;BME280;68111;44.728;11.290;2023-08-01T02:26:07;100628.50;;;26.91;57.15
78773;BME280;68111;44.728;11.290;2023-08-01T02:28:34;100624.81;;;26.92;57.22
78773;BME280;68111;44.728;11.290;2023-08-01T02:31:01;100617.53;;;26.93;57.14
78773;BME280;68111;44.728;11.290;2023-08-01T02:33:28;100614.81;;;26.93;57.21
78773;BME280;68111;44.728;11.290;2023-08-01T02:35:55;100612.88;;;26.95;57.00
78773;BME280;68111;44.728;11.290;2023-08-01T02:38:22;100606.47;;;26.96;57.22
78773;BME280;68111;44.728;11.290;2023-08-01T02:40:48;100602.88;;;26.95;57.61
78773;BME280;68111;44.728;11.290;2023-08-01T02:43:15;100593.13;;;26.93;56.93
78773;BME280;68111;44.728;11.290;2023-08-01T02:45:42;100591.59;;;26.89;57.68
78773;BME280;68111;44.728;11.290;2023-08-01T02:48:09;100587.44;;;26.83;57.36
78773;BME280;68111;44.728;11.290;2023-08-01T02:50:36;100580.69;;;26.76;57.45
78773;BME280;68111;44.728;11.290;2023-08-01T02:53:04;100580.25;;;26.69;57.79
78773;BME280;68111;44.728;11.290;2023-08-01T02:55:31;100584.34;;;26.62;58.07
78773;BME280;68111;44.728;11.290;2023-08-01T02:57:58;100582.06;;;26.56;58.44
78773;BME280;68111;44.728;11.290;2023-08-01T03:00:24;100600.56;;;26.50;58.57
78773;BME280;68111;44.728;11.290;2023-08-01T03:02:52;100598.16;;;26.45;58.64
78773;BME280;68111;44.728;11.290;2023-08-01T03:05:19;100596.63;;;26.41;58.62
78773;BME280;68111;44.728;11.290;2023-08-01T03:07:46;100604.00;;;26.39;58.66
78773;BME280;68111;44.728;11.290;2023-08-01T03:10:13;100619.38;;;26.38;58.92
78773;BME280;68111;44.728;11.290;2023-08-01T03:12:56;100623.94;;;26.38;58.96
78773;BME280;68111;44.728;11.290;2023-08-01T03:15:22;100623.72;;;26.41;58.87
78773;BME280;68111;44.728;11.290;2023-08-01T03:17:49;100628.94;;;26.44;59.13
78773;BME280;68111;44.728;11.290;2023-08-01T03:20:16;100633.09;;;26.50;58.98
78773;BME280;68111;44.728;11.290;2023-08-01T03:22:43;100624.88;;;26.51;58.82
78773;BME280;68111;44.728;11.290;2023-08-01T03:25:11;100612.19;;;26.52;59.04
78773;BME280;68111;44.728;11.290;2023-08-01T03:27:37;100612.47;;;26.47;58.96
78773;BME280;68111;44.728;11.290;2023-08-01T03:30:05;100614.63;;;26.42;58.93
78773;BME280;68111;44.728;11.290;2023-08-01T03:32:35;100612.88;;;26.41;58.97
78773;BME280;68111;44.728;11.290;2023-08-01T03:35:04;100614.63;;;26.42;59.14
78773;BME280;68111;44.728;11.290;2023-08-01T03:37:31;100617.44;;;26.40;59.02
78773;BME280;68111;44.728;11.290;2023-08-01T03:39:58;100614.81;;;26.39;58.85
78773;BME280;68111;44.728;11.290;2023-08-01T03:42:25;100616.56;;;26.40;58.93
78773;BME280;68111;44.728;11.290;2023-08-01T03:44:51;100606.41;;;26.43;58.75
78773;BME280;68111;44.728;11.290;2023-08-01T03:47:18;100597.09;;;26.48;58.62
78773;BME280;68111;44.728;11.290;2023-08-01T03:49:45;100589.50;;;26.53;58.48
78773;BME280;68111;44.728;11.290;2023-08-01T03:52:30;100601.03;;;26.56;58.31
78773;BME280;68111;44.728;11.290;2023-08-01T03:54:56;100592.31;;;26.51;57.90
78773;BME280;68111;44.728;11.290;2023-08-01T03:57:23;100590.22;;;26.42;57.99
78773;BME280;68111;44.728;11.290;2023-08-01T03:59:50;100578.81;;;26.37;57.88
78773;BME280;68111;44.728;11.290;2023-08-01T04:02:16;100579.19;;;26.31;57.60
78773;BME280;68111;44.728;11.290;2023-08-01T04:04:43;100576.59;;;26.29;57.48
78773;BME280;68111;44.728;11.290;2023-08-01T04:07:10;100579.59;;;26.25;57.43
78773;BME280;68111;44.728;11.290;2023-08-01T04:09:37;100570.69;;;26.23;56.74
78773;BME280;68111;44.728;11.290;2023-08-01T04:12:05;100559.28;;;26.18;56.83
78773;BME280;68111;44.728;11.290;2023-08-01T04:14:34;100544.00;;;26.17;56.59
78773;BME280;68111;44.728;11.290;2023-08-01T04:17:01;100536.66;;;26.19;56.53
78773;BME280;68111;44.728;11.290;2023-08-01T04:19:27;100541.88;;;26.22;56.26
78773;BME280;68111;44.728;11.290;2023-08-01T04:21:54;100538.38;;;26.20;56.62
78773;BME280;68111;44.728;11.290;2023-08-01T04:24:21;100533.56;;;26.10;56.55
78773;BME280;68111;44.728;11.290;2023-08-01T04:26:51;100524.28;;;26.00;56.51
78773;BME280;68111;44.728;11.290;2023-08-01T04:29:19;100527.78;;;25.88;56.64
78773;BME280;68111;44.728;11.290;2023-08-01T04:31:46;100521.22;;;25.78;56.99
78773;BME280;68111;44.728;11.290;2023-08-01T04:34:12;100519.00;;;25.70;57.09
78773;BME280;68111;44.728;11.290;2023-08-01T04:36:39;100530.03;;;25.67;57.07
78773;BME280;68111;44.728;11.290;2023-08-01T04:39:06;100538.25;;;25.66;56.89
78773;BME280;68111;44.728;11.290;2023-08-01T04:41:33;100543.59;;;25.67;56.68
78773;BME280;68111;44.728;11.290;2023-08-01T04:43:59;100553.34;;;25.70;56.08
78773;BME280;68111;44.728;11.290;2023-08-01T04:46:26;100554.97;;;25.72;55.61
78773;BME280;68111;44.728;11.290;2023-08-01T04:48:53;100567.16;;;25.79;55.22
78773;BME280;68111;44.728;11.290;2023-08-01T04:51:20;100575.47;;;25.91;54.70
78773;BME280;68111;44.728;11.290;2023-08-01T04:53:46;100584.69;;;26.02;54.56
78773;BME280;68111;44.728;11.290;2023-08-01T04:56:13;100576.72;;;26.13;54.07
78773;BME280;68111;44.728;11.290;2023-08-01T04:58:40;100567.03;;;26.24;53.53
78773;BME280;68111;44.728;11.290;2023-08-01T05:01:07;100553.94;;;26.30;53.00
78773;BME280;68111;44.728;11.290;2023-08-01T05:03:33;100540.88;;;26.37;52.43
78773;BME280;68111;44.728;11.290;2023-08-01T05:06:00;100531.34;;;26.44;52.23
78773;BME280;68111;44.728;11.290;2023-08-01T05:08:27;100531.72;;;26.52;51.68
78773;BME280;68111;44.728;11.290;2023-08-01T05:10:54;100522.19;;;26.59;51.60
78773;BME280;68111;44.728;11.290;2023-08-01T05:13:20;100524.59;;;26.64;51.17
78773;BME280;68111;44.728;11.290;2023-08-01T05:16:05;100535.53;;;26.62;51.08
78773;BME280;68111;44.728;11.290;2023-08-01T05:18:32;100545.63;;;26.60;51.04
78773;BME280;68111;44.728;11.290;2023-08-01T05:20:59;100557.72;;;26.82;50.70
78773;BME280;68111;44.728;11.290;2023-08-01T05:23:26;100558.88;;;27.17;50.05
78773;BME280;68111;44.728;11.290;2023-08-01T05:25:52;100553.94;;;27.49;49.13
78773;BME280;68111;44.728;11.290;2023-08-01T05:28:19;100536.56;;;27.52;48.68
78773;BME280;68111;44.728;11.290;2023-08-01T05:30:46;100535.47;;;27.41;48.41
78773;BME280;68111;44.728;11.290;2023-08-01T05:33:13;100535.16;;;27.33;49.04
78773;BME280;68111;44.728;11.290;2023-08-01T05:35:40;100535.25;;;27.32;48.89
78773;BME280;68111;44.728;11.290;2023-08-01T05:38:07;100520.81;;;27.31;48.70
78773;BME280;68111;44.728;11.290;2023-08-01T05:40:33;100513.53;;;27.32;48.85
78773;BME280;68111;44.728;11.290;2023-08-01T05:43:00;100507.13;;;27.33;48.79
78773;BME280;68111;44.728;11.290;2023-08-01T05:45:27;100506.81;;;27.37;48.99
78773;BME280;68111;44.728;11.290;2023-08-01T05:47:54;100504.41;;;27.46;48.59
78773;BME280;68111;44.728;11.290;2023-08-01T05:50:21;100510.69;;;27.59;48.61
78773;BME280;68111;44.728;11.290;2023-08-01T05:52:48;100509.84;;;27.71;48.11
78773;BME280;68111;44.728;11.290;2023-08-01T05:55:14;100513.50;;;27.83;48.21
78773;BME280;68111;44.728;11.290;2023-08-01T05:57:41;100514.78;;;27.90;47.64
78773;BME280;68111;44.728;11.290;2023-08-01T06:00:08;100506.06;;;27.97;47.48
78773;BME280;68111;44.728;11.290;2023-08-01T06:02:38;100512.09;;;28.14;47.64
78773;BME280;68111;44.728;11.290;2023-08-01T06:05:05;100507.78;;;28.35;47.11
78773;BME280;68111;44.728;11.290;2023-08-01T06:07:31;100505.34;;;28.43;46.83
78773;BME280;68111;44.728;11.290;2023-08-01T06:09:58;100509.81;;;28.44;46.52
78773;BME280;68111;44.728;11.290;2023-08-01T06:12:25;100512.31;;;28.47;46.42
78773;BME280;68111;44.728;11.290;2023-08-01T06:14:52;100510.28;;;28.86;45.99
78773;BME280;68111;44.728;11.290;2023-08-01T06:17:18;100508.66;;;29.63;45.03
78773;BME280;68111;44.728;11.290;2023-08-01T06:19:45;100499.56;;;30.62;43.43
78773;BME280;68111;44.728;11.290;2023-08-01T06:22:12;100495.22;;;31.63;41.82
78773;BME280;68111;44.728;11.290;2023-08-01T06:24:38;100497.09;;;32.12;40.54
78773;BME280;68111;44.728;11.290;2023-08-01T06:27:05;100487.81;;;32.25;39.80
78773;BME280;68111;44.728;11.290;2023-08-01T06:29:32;100486.31;;;32.11;39.77
78773;BME280;68111;44.728;11.290;2023-08-01T06:31:59;100502.22;;;31.87;40.04
78773;BME280;68111;44.728;11.290;2023-08-01T06:34:26;100501.09;;;31.59;40.25
78773;BME280;68111;44.728;11.290;2023-08-01T06:36:53;100498.13;;;31.41;40.81
78773;BME280;68111;44.728;11.290;2023-08-01T06:39:20;100496.78;;;31.26;40.92
78773;BME280;68111;44.728;11.290;2023-08-01T06:41:47;100499.88;;;31.42;41.05
78773;BME280;68111;44.728;11.290;2023-08-01T06:44:13;100496.06;;;31.64;40.61
78773;BME280;68111;44.728;11.290;2023-08-01T06:46:40;100491.13;;;31.78;40.16
78773;BME280;68111;44.728;11.290;2023-08-01T06:49:07;100490.19;;;32.08;40.07
78773;BME280;68111;44.728;11.290;2023-08-01T06:51:34;100483.19;;;32.35;39.38
78773;BME280;68111;44.728;11.290;2023-08-01T06:54:00;100494.16;;;32.44;39.24
78773;BME280;68111;44.728;11.290;2023-08-01T06:56:27;100486.66;;;32.27;39.41
78773;BME280;68111;44.728;11.290;2023-08-01T06:58:54;100479.69;;;32.04;39.73
78773;BME280;68111;44.728;11.290;2023-08-01T07:01:21;100463.53;;;31.91;39.65
78773;BME280;68111;44.728;11.290;2023-08-01T07:03:49;100466.56;;;31.98;39.82
78773;BME280;68111;44.728;11.290;2023-08-01T07:06:18;100467.38;;;32.67;38.99
78773;BME280;68111;44.728;11.290;2023-08-01T07:08:44;100468.88;;;33.18;38.14
78773;BME280;68111;44.728;11.290;2023-08-01T07:11:11;100464.84;;;33.32;38.09
78773;BME280;68111;44.728;11.290;2023-08-01T07:13:38;100472.50;;;33.19;37.71
78773;BME280;68111;44.728;11.290;2023-08-01T07:16:04;100480.56;;;33.20;37.70
78773;BME280;68111;44.728;11.290;2023-08-01T07:18:31;100472.81;;;33.06;38.02
78773;BME280;68111;44.728;11.290;2023-08-01T07:21:02;100467.06;;;32.99;38.06
78773;BME280;68111;44.728;11.290;2023-08-01T07:23:29;100464.81;;;34.24;37.36
78773;BME280;68111;44.728;11.290;2023-08-01T07:25:56;100481.66;;;35.44;34.69
78773;BME280;68111;44.728;11.290;2023-08-01T07:28:23;100468.81;;;35.52;34.49
78773;BME280;68111;44.728;11.290;2023-08-01T07:31:01;100478.19;;;35.16;34.46
78773;BME280;68111;44.728;11.290;2023-08-01T07:33:28;100471.34;;;34.58;34.84
78773;BME280;68111;44.728;11.290;2023-08-01T07:35:55;100477.31;;;33.91;35.56
78773;BME280;68111;44.728;11.290;2023-08-01T07:38:22;100476.50;;;33.24;36.68
78773;BME280;68111;44.728;11.290;2023-08-01T07:40:48;100467.69;;;32.84;37.63
78773;BME280;68111;44.728;11.290;2023-08-01T07:43:15;100465.03;;;33.11;37.48
78773;BME280;68111;44.728;11.290;2023-08-01T07:45:42;100455.91;;;33.57;37.08
78773;BME280;68111;44.728;11.290;2023-08-01T07:48:09;100468.94;;;34.10;36.54
78773;BME280;68111;44.728;11.290;2023-08-01T07:50:36;100478.38;;;34.96;35.53
78773;BME280;68111;44.728;11.290;2023-08-01T07:53:03;100487.44;;;35.15;34.53
78773;BME280;68111;44.728;11.290;2023-08-01T07:55:33;100477.19;;;34.81;35.35
78773;BME280;68111;44.728;11.290;2023-08-01T07:58:01;100477.47;;;34.34;36.00
78773;BME280;68111;44.728;11.290;2023-08-01T08:00:28;100473.31;;;34.03;36.89
78773;BME280;68111;44.728;11.290;2023-08-01T08:02:54;100462.13;;;33.96;36.78
78773;BME280;68111;44.728;11.290;2023-08-01T08:05:21;100449.66;;;34.20;36.40
78773;BME280;68111;44.728;11.290;2023-08-01T08:07:48;100450.59;;;34.28;36.09
78773;BME280;68111;44.728;11.290;2023-08-01T08:10:15;100452.84;;;34.43;36.18
78773;BME280;68111;44.728;11.290;2023-08-01T08:12:42;100456.13;;;35.08;35.28
78773;BME280;68111;44.728;11.290;2023-08-01T08:15:09;100452.84;;;35.56;34.99
78773;BME280;68111;44.728;11.290;2023-08-01T08:17:36;100450.78;;;35.58;34.78
78773;BME280;68111;44.728;11.290;2023-08-01T08:20:03;100451.50;;;35.68;34.50
78773;BME280;68111;44.728;11.290;2023-08-01T08:22:30;100454.03;;;35.96;33.87
78773;BME280;68111;44.728;11.290;2023-08-01T08:24:57;100447.38;;;36.14;33.79
78773;BME280;68111;44.728;11.290;2023-08-01T08:27:23;100450.00;;;36.32;33.08
78773;BME280;68111;44.728;11.290;2023-08-01T08:29:50;100442.66;;;36.90;32.91
78773;BME280;68111;44.728;11.290;2023-08-01T08:32:17;100452.72;;;37.93;31.50
78773;BME280;68111;44.728;11.290;2023-08-01T08:34:44;100450.47;;;38.73;29.86
78773;BME280;68111;44.728;11.290;2023-08-01T08:37:11;100455.16;;;39.25;29.25
78773;BME280;68111;44.728;11.290;2023-08-01T08:39:37;100451.28;;;40.15;28.34
78773;BME280;68111;44.728;11.290;2023-08-01T08:42:23;100453.13;;;40.86;27.11
78773;BME280;68111;44.728;11.290;2023-08-01T08:44:55;100445.97;;;41.27;25.92
78773;BME280;68111;44.728;11.290;2023-08-01T08:47:25;100447.59;;;41.83;25.74
78773;BME280;68111;44.728;11.290;2023-08-01T08:49:55;100446.13;;;42.62;24.81
78773;BME280;68111;44.728;11.290;2023-08-01T08:52:24;100443.97;;;43.43;23.84
78773;BME280;68111;44.728;11.290;2023-08-01T08:54:52;100439.81;;;44.23;22.56
78773;BME280;68111;44.728;11.290;2023-08-01T08:57:19;100442.09;;;44.64;21.93
78773;BME280;68111;44.728;11.290;2023-08-01T08:59:47;100436.41;;;45.27;21.32
78773;BME280;68111;44.728;11.290;2023-08-01T09:02:15;100443.72;;;46.32;20.20
78773;BME280;68111;44.728;11.290;2023-08-01T09:04:43;100439.75;;;47.39;18.85
78773;BME280;68111;44.728;11.290;2023-08-01T09:07:10;100431.63;;;47.78;18.76
78773;BME280;68111;44.728;11.290;2023-08-01T09:09:38;100426.63;;;47.92;18.17
78773;BME280;68111;44.728;11.290;2023-08-01T09:12:05;100426.91;;;48.07;17.73
78773;BME280;68111;44.728;11.290;2023-08-01T09:14:33;100426.31;;;48.05;17.52
78773;BME280;68111;44.728;11.290;2023-08-01T09:17:09;100413.25;;;48.10;17.28
78773;BME280;68111;44.728;11.290;2023-08-01T09:19:36;100410.84;;;48.59;17.49
78773;BME280;68111;44.728;11.290;2023-08-01T09:22:10;100411.81;;;49.20;16.54
78773;BME280;68111;44.728;11.290;2023-08-01T09:24:37;100418.75;;;49.51;16.21
78773;BME280;68111;44.728;11.290;2023-08-01T09:27:04;100422.09;;;49.31;16.06
78773;BME280;68111;44.728;11.290;2023-08-01T09:29:32;100413.06;;;48.91;16.29
78773;BME280;68111;44.728;11.290;2023-08-01T09:31:59;100408.53;;;48.56;16.37
78773;BME280;68111;44.728;11.290;2023-08-01T09:34:27;100404.50;;;48.52;16.42
78773;BME280;68111;44.728;11.290;2023-08-01T09:36:58;100400.34;;;49.05;15.92
78773;BME280;68111;44.728;11.290;2023-08-01T09:39:25;100400.22;;;49.33;15.98
78773;BME280;68111;44.728;11.290;2023-08-01T09:41:56;100399.09;;;49.73;15.33
78773;BME280;68111;44.728;11.290;2023-08-01T09:44:25;100393.94;;;50.14;15.00
78773;BME280;68111;44.728;11.290;2023-08-01T09:46:57;100386.56;;;49.03;15.58
78773;BME280;68111;44.728;11.290;2023-08-01T09:49:24;100393.91;;;47.69;16.58
78773;BME280;68111;44.728;11.290;2023-08-01T09:51:50;100385.72;;;47.04;17.47
78773;BME280;68111;44.728;11.290;2023-08-01T09:54:18;100378.25;;;46.51;17.98
78773;BME280;68111;44.728;11.290;2023-08-01T09:56:46;100380.78;;;45.81;18.63
78773;BME280;68111;44.728;11.290;2023-08-01T09:59:19;100382.75;;;45.44;19.05
78773;BME280;68111;44.728;11.290;2023-08-01T10:01:51;100366.66;;;44.59;20.01
78773;BME280;68111;44.728;11.290;2023-08-01T10:04:29;100364.19;;;44.94;19.97
78773;BME280;68111;44.728;11.290;2023-08-01T10:07:05;100358.94;;;46.08;18.81
78773;BME280;68111;44.728;11.290;2023-08-01T10:09:34;100355.94;;;46.33;19.11
78773;BME280;68111;44.728;11.290;2023-08-01T10:12:02;100357.50;;;45.87;19.04
78773;BME280;68111;44.728;11.290;2023-08-01T10:14:31;100361.97;;;46.06;18.93
78773;BME280;68111;44.728;11.290;2023-08-01T10:16:58;100366.03;;;45.92;19.22
78773;BME280;68111;44.728;11.290;2023-08-01T10:19:25;100353.06;;;45.68;19.50
78773;BME280;68111;44.728;11.290;2023-08-01T10:21:53;100331.91;;;44.80;20.22
78773;BME280;68111;44.728;11.290;2023-08-01T10:24:23;100336.03;;;43.90;21.10
78773;BME280;68111;44.728;11.290;2023-08-01T10:26:51;100335.28;;;43.11;22.29
78773;BME280;68111;44.728;11.290;2023-08-01T10:29:17;100324.63;;;42.95;22.40
78773;BME280;68111;44.728;11.290;2023-08-01T10:31:54;100326.34;;;42.96;22.72
78773;BME280;68111;44.728;11.290;2023-08-01T10:34:21;100332.72;;;43.10;22.57
78773;BME280;68111;44.728;11.290;2023-08-01T10:36:55;100335.06;;;43.13;22.98
78773;BME280;68111;44.728;11.290;2023-08-01T10:39:41;100325.22;;;43.10;22.43
78773;BME280;68111;44.728;11.290;2023-08-01T10:42:07;100315.09;;;43.36;22.80
78773;BME280;68111;44.728;11.290;2023-08-01T10:44:45;100306.47;;;43.89;21.91
78773;BME280;68111;44.728;11.290;2023-08-01T10:47:12;100299.19;;;44.19;21.64
78773;BME280;68111;44.728;11.290;2023-08-01T10:49:41;100298.09;;;44.52;21.44
78773;BME280;68111;44.728;11.290;2023-08-01T10:52:23;100297.75;;;44.85;21.16
78773;BME280;68111;44.728;11.290;2023-08-01T10:54:58;100297.53;;;45.05;20.79
78773;BME280;68111;44.728;11.290;2023-08-01T10:57:34;100289.53;;;44.90;20.88
78773;BME280;68111;44.728;11.290;2023-08-01T11:00:02;100288.19;;;44.56;20.55
78773;BME280;68111;44.728;11.290;2023-08-01T11:02:31;100284.91;;;43.78;20.79
78773;BME280;68111;44.728;11.290;2023-08-01T11:05:06;100293.41;;;42.87;21.36
78773;BME280;68111;44.728;11.290;2023-08-01T11:07:34;100301.78;;;42.14;22.11
78773;BME280;68111;44.728;11.290;2023-08-01T11:10:12;100307.56;;;41.58;23.42
78773;BME280;68111;44.728;11.290;2023-08-01T11:12:43;100308.94;;;41.21;24.12
78773;BME280;68111;44.728;11.290;2023-08-01T11:15:12;100295.94;;;40.87;24.95
78773;BME280;68111;44.728;11.290;2023-08-01T11:17:41;100286.78;;;40.58;25.16
78773;BME280;68111;44.728;11.290;2023-08-01T11:20:10;100287.09;;;40.42;24.99
78773;BME280;68111;44.728;11.290;2023-08-01T11:22:48;100288.78;;;40.22;25.24
78773;BME280;68111;44.728;11.290;2023-08-01T11:25:15;100296.06;;;40.02;25.30
78773;BME280;68111;44.728;11.290;2023-08-01T11:27:42;100273.91;;;39.80;25.58
78773;BME280;68111;44.728;11.290;2023-08-01T11:30:09;100273.97;;;39.65;26.33
78773;BME280;68111;44.728;11.290;2023-08-01T11:32:37;100269.56;;;39.50;26.11
78773;BME280;68111;44.728;11.290;2023-08-01T11:35:04;100269.75;;;39.33;26.44
78773;BME280;68111;44.728;11.290;2023-08-01T11:37:32;100269.22;;;39.23;26.51
78773;BME280;68111;44.728;11.290;2023-08-01T11:39:59;100269.59;;;39.20;26.62
78773;BME280;68111;44.728;11.290;2023-08-01T11:42:30;100264.06;;;39.20;27.14
78773;BME280;68111;44.728;11.290;2023-08-01T11:45:11;100256.66;;;39.06;27.07
78773;BME280;68111;44.728;11.290;2023-08-01T11:47:45;100253.00;;;38.91;26.91
78773;BME280;68111;44.728;11.290;2023-08-01T11:50:12;100249.13;;;38.70;27.06
78773;BME280;68111;44.728;11.290;2023-08-01T11:52:39;100252.41;;;38.51;27.29
78773;BME280;68111;44.728;11.290;2023-08-01T11:55:06;100250.50;;;38.37;27.12
78773;BME280;68111;44.728;11.290;2023-08-01T11:57:33;100241.16;;;38.38;27.35
78773;BME280;68111;44.728;11.290;2023-08-01T12:00:00;100245.19;;;38.50;26.60
78773;BME280;68111;44.728;11.290;2023-08-01T12:02:28;100238.03;;;38.56;26.07
78773;BME280;68111;44.728;11.290;2023-08-01T12:04:58;100239.44;;;38.37;26.23
78773;BME280;68111;44.728;11.290;2023-08-01T12:07:25;100233.91;;;38.22;26.61
78773;BME280;68111;44.728;11.290;2023-08-01T12:10:00;100237.28;;;38.09;26.50
78773;BME280;68111;44.728;11.290;2023-08-01T12:12:28;100225.44;;;37.86;26.50
78773;BME280;68111;44.728;11.290;2023-08-01T12:14:55;100227.84;;;37.58;27.27
78773;BME280;68111;44.728;11.290;2023-08-01T12:17:22;100230.53;;;37.43;26.40
78773;BME280;68111;44.728;11.290;2023-08-01T12:19:49;100225.88;;;37.44;26.49
78773;BME280;68111;44.728;11.290;2023-08-01T12:22:16;100216.38;;;37.46;26.42
78773;BME280;68111;44.728;11.290;2023-08-01T12:24:43;100210.50;;;37.49;26.40
78773;BME280;68111;44.728;11.290;2023-08-01T12:27:10;100215.47;;;37.54;26.21
78773;BME280;68111;44.728;11.290;2023-08-01T12:29:37;100216.50;;;37.53;26.05
78773;BME280;68111;44.728;11.290;2023-08-01T12:32:04;100211.91;;;37.45;25.54
78773;BME280;68111;44.728;11.290;2023-08-01T12:34:34;100203.50;;;37.39;25.08
78773;BME280;68111;44.728;11.290;2023-08-01T12:37:01;100209.94;;;37.31;25.36
78773;BME280;68111;44.728;11.290;2023-08-01T12:39:27;100210.34;;;37.20;25.79
78773;BME280;68111;44.728;11.290;2023-08-01T12:41:54;100208.31;;;37.14;25.87
78773;BME280;68111;44.728;11.290;2023-08-01T12:44:21;100215.22;;;37.10;25.73